Devoto, Argentina
Current Conditions -  °F | °C
As of 1:00 AM on Sunday 25 Jan 2015 (Local Time) from SACO Reporting Station
Clear Clear  
Wind Chill: 70°   Ceiling: Unl
Heat Index: 70°   Visibility: 6mi
Dew Point: 64°   Wind: 6mph
Humidity: 83%   Direction: 320°NW
Pressure: 29.91"   Gusts: NA
Location:  31.4°S, 62.32°W
Report Text: SACO 250400Z 32005KT CAVOK 21/18 Q1013
Loading
Personal Weather Stations






























Interactive Weather Map New forecast layout! Learn more

10-Day Weather Forecast

Advertisements
Track Severe Weather on mobile